Bewolking Meer informatie Parkstad Weather Satellite


Neerslagradar Meer informatie Parkstad Rain Snow Radar


Onweersbuien Meer informatie Parkstad Lighntning


24/7 Weercamera Meer informatie Parkstad Weathercam


Natuurbrandrisico
CBI






Het weer levert geen direct gevaar op in Parkstad.    Er zijn geen waarschuwingen afgegeven voor Parkstad (045)

METAR rapporten vliegvelden

   
EHBK - Beek Nederland
Gewijzigd: 15-07-2019 21:25
Bewolking  
Bewolking  
   Wind: varieert 3.7 km/h
Wind: varieert 3.7 km/h
Temperatuur: 16°C
Dauwpunt: 11°C
Vochtigheid: 72%
Barometer: 1019 hPa
Satelliet beelden: Bewolking
Zicht: meer dan 10 km
Bewolking: Bewolking 1067 m
EHBK 151925Z AUTO VRB02KT 9999 OVC035 16/11 Q1019 NOSIG
EHBK - Maastricht Nederland
Gewijzigd: 15-07-2019 21:25
Bewolking  
Bewolking  
   Wind: varieert 3.7 km/h
Wind: varieert 3.7 km/h
Temperatuur: 16°C
Dauwpunt: 11°C
Vochtigheid: 72%
Barometer: 1019 hPa
Satelliet beelden: Bewolking
Zicht: meer dan 10 km
Bewolking: Bewolking 1067 m
EHBK 151925Z AUTO VRB02KT 9999 OVC035 16/11 Q1019 NOSIG
EBLG - Liège België
Gewijzigd: 15-07-2019 21:50
Grotendeels bewolkt  
Grotendeels bewolkt  
   Wind: NNW 5.6 km/h
Wind: NNW 5.6 km/h
Temperatuur: 15°C
Dauwpunt: 10°C
Vochtigheid: 72%
Barometer: 1020 hPa
Satelliet beelden: Grotendeels bewolkt
Zicht: meer dan 10 km
Bewolking: Grotendeels bewolkt 914 m
EBLG 151950Z 34003KT 9999 BKN030 15/10 Q1020 NOSIG
EDDK - Köln/Bonn Duitsland
Gewijzigd: 15-07-2019 21:50
Grotendeels bewolkt  
Grotendeels bewolkt  
   Wind: ONO 3.7 km/h
Wind: ONO 3.7 km/h
Temperatuur: 15°C
Dauwpunt: 11°C
Vochtigheid: 77%
Barometer: 1019 hPa
Satelliet beelden: Grotendeels bewolkt
Zicht: meer dan 10 km
Bewolking: Licht bewolkt 762 m,
Grotendeels bewolkt 1128 m
EDDK 151950Z 06002KT 9999 FEW025 BKN037 15/11 Q1019 NOSIG
EDDL - Düsseldorf Duitsland
Gewijzigd: 15-07-2019 21:50
Grotendeels bewolkt  
Grotendeels bewolkt  
   Wind: Westen 9.3 km/h
Wind: Westen 9.3 km/h
Temperatuur: 17°C
Dauwpunt: 10°C
Vochtigheid: 64%
Barometer: 1019 hPa
Satelliet beelden: Grotendeels bewolkt
Zicht: meer dan 10 km
Bewolking: Grotendeels bewolkt 1280 m
EDDL 151950Z 26005KT 9999 BKN042 17/10 Q1019 NOSIG
EHEH - Eindhoven Nederland
Gewijzigd: 15-07-2019 21:55
Grotendeels bewolkt  
Grotendeels bewolkt  
   Wind: NW 11.1 km/h
Wind: NW 11.1 km/h
Temperatuur: 16°C
Dauwpunt: 12°C
Vochtigheid: 77%
Barometer: 1020 hPa
Satelliet beelden: Grotendeels bewolkt
Zicht: meer dan 10 km
Bewolking: Grotendeels bewolkt 1250 m
EHEH 151955Z AUTO 32006KT 270V010 9999 BKN041 16/12 Q1020 BLU 32006KT 9999 SCT025 BKN035
ELLX - Luxemburg Luxemburg
Gewijzigd: 15-07-2019 21:50
Helder  
Helder  
   Wind: Noorden 16.7 km/h
Wind: Noorden 16.7 km/h
Temperatuur: 15°C
Dauwpunt: 10°C
Vochtigheid: 72%
Barometer: 1019 hPa
Zicht: meer dan 10 km
Bewolking: Helder
ELLX 151950Z 36009KT CAVOK 15/10 Q1019 NOSIG
EGLL - London England
Gewijzigd: 15-07-2019 21:50
Helder  
Helder  
   Wind: NO 7.4 km/h
Wind: NO 7.4 km/h
Temperatuur: 20°C
Dauwpunt: 10°C
Vochtigheid: 53%
Barometer: 1021 hPa
Satelliet beelden: Helder
Zicht: meer dan 10 km
Bewolking: Helder
EGLL 151950Z AUTO 05004KT 9999 NCD 20/10 Q1021
EBAW - Antwerpen België
Gewijzigd: 15-07-2019 21:50
Grotendeels bewolkt  
Grotendeels bewolkt  
   Wind: Noorden 13 km/h
Wind: Noorden 13 km/h
Temperatuur: 16°C
Dauwpunt: 11°C
Vochtigheid: 72%
Barometer: 1020 hPa
Satelliet beelden: Grotendeels bewolkt
Zicht: meer dan 10 km
Bewolking: Grotendeels bewolkt 1097 m
EBAW 151950Z 35007KT 9999 BKN036 16/11 Q1020 NOSIG
EBOS - Oostende België
Gewijzigd: 15-07-2019 21:50
Grotendeels bewolkt  
Grotendeels bewolkt  
   Wind: NNO 11.1 km/h
Wind: NNO 11.1 km/h
Temperatuur: 15°C
Dauwpunt: 10°C
Vochtigheid: 72%
Barometer: 1021 hPa
Satelliet beelden: Grotendeels bewolkt
Zicht: meer dan 10 km
Bewolking: Licht bewolkt 549 m,
Grotendeels bewolkt 762 m
EBOS 151950Z 03006KT 9999 FEW018 BKN025 15/10 Q1021 NOSIG
LEAL - La Nucia Spanje
Gewijzigd: 15-07-2019 21:30
Helder  
Helder  
   Wind: ONO 20.4 km/h
Wind: ONO 20.4 km/h
Temperatuur: 26°C
Dauwpunt: 23°C
Vochtigheid: 84%
Barometer: 1011 hPa
Zicht: meer dan 10 km
Bewolking: Helder
LEAL 151930Z 07011KT CAVOK 26/23 Q1011 NOSIG
TNCA - Oranjestad Aruba
Gewijzigd: 15-07-2019 21:00
Licht bewolkt  
Licht bewolkt  
   Wind: Oosten 27.8 km/h
Wind: Oosten 27.8 km/h
Temperatuur: 30°C
Gevoelstemperatuur: 34°C
Dauwpunt: 23°C
Vochtigheid: 66%
Barometer: 1011 hPa
Satelliet beelden: Licht bewolkt
Zicht: meer dan 10 km
Bewolking: Licht bewolkt 549 m
TNCA 151900Z 08015KT 9999 FEW018 30/23 Q1011 NOSIG
TNCC - Willemstad Curacao
Gewijzigd: 15-07-2019 21:00
Kleine regenbuien, Neerslag, Licht bewolkt  
Kleine regenbuien, Neerslag, Licht bewolkt  
   Wind: Oosten 14.8 km/h
Wind: Oosten 14.8 km/h
Temperatuur: 28°C
Gevoelstemperatuur: 31°C
Dauwpunt: 23°C
Vochtigheid: 74%
Barometer: 1011 hPa
Satelliet beelden: Licht bewolkt
Zicht: meer dan 10 km
Bewolking: Licht bewolkt 488 m
TNCC 151900Z 09008KT 9999 -SHRA FEW016TCU 28/23 Q1011 NOSIG
MTPP - Port au Prince Haitië
Gewijzigd: 15-07-2019 20:00
Verouderd
Licht bewolkt  
Licht bewolkt  
   Wind: OZO 16.7 km/h
Wind: OZO 16.7 km/h
Temperatuur: 36°C
Dauwpunt: 20°C
Vochtigheid: 39%
Barometer: 1014 hPa
Satelliet beelden: Licht bewolkt
Zicht: meer dan 10 km
Bewolking: Licht bewolkt 975 m
MTPP 151800Z 11009KT 9999 FEW032 36/20 Q1014 A2994
ENVA - Trondheim Noorwegen
Gewijzigd: 15-07-2019 21:50
Grotendeels bewolkt  
Grotendeels bewolkt  
   Wind: Noorden 9.3 km/h
Wind: Noorden 9.3 km/h
Temperatuur: 11°C
Dauwpunt: 8°C
Vochtigheid: 82%
Barometer: 1014 hPa
Satelliet beelden: Grotendeels bewolkt
Zicht: meer dan 10 km
Bewolking: Licht bewolkt 610 m,
Grotendeels bewolkt 914 m
ENVA 151950Z 36005KT 330V040 9999 FEW020 BKN030 11/08 Q1014 RMK WIND 670FT 01008KT
ENBO - Bodø Noorwegen
Gewijzigd: 15-07-2019 21:50
Grotendeels bewolkt  
Grotendeels bewolkt  
   Wind: Windstil
Wind: Windstil
Temperatuur: 12°C
Dauwpunt: 8°C
Vochtigheid: 77%
Barometer: 1014 hPa
Satelliet beelden: Grotendeels bewolkt
Zicht: meer dan 10 km
Bewolking: Licht bewolkt 549 m,
Grotendeels bewolkt 914 m
ENBO 151950Z 00000KT 9999 FEW018 BKN030 12/08 Q1014 NOSIG
ETNG - Geilenkirchen Duitsland
Gewijzigd: 15-07-2019 20:50
Grotendeels bewolkt  
Grotendeels bewolkt  
   Wind: NW 3.7 km/h
Wind: NW 3.7 km/h
Temperatuur: 17°C
Dauwpunt: 10°C
Vochtigheid: 64%
Barometer: 1019 hPa
Satelliet beelden: Grotendeels bewolkt
Zicht: meer dan 10 km
Bewolking: Grotendeels bewolkt 1219 m
ETNG 151850Z 32002KT 9999 BKN040 17/10 Q1019
 

Script ontwikkeld door  Saratoga-weather.org Aangepast voor de template door  Weerstation Leuven

U vindt ons ook hier:

Het Weer Aktueel

WOW Nederland KNMI

Vereniging voor Weerkunde en Klimatologie

UK Met Office Weather Observation Website (WOW)

WeatherCloud

Weather Underground

Awekas

Weatherlink IP

HAMweather, WeatherForYou, PWS Weather

Citizen Weather Observer Program (CWOP)

Apparatuur in gebruik:

Hardwareleverancier
Weerhuisje

Weerstation
Vantage Pro2+ UV

Weercomputer's
alix3d2 & wl330n

Weerprogramma's
Smartbedded

Satelliet NOAA's
WRX137 & KX137

Satelliet Eumetsat
Ayecka SR1 & Triax

Bliksemdetectie
Boltek StormTracker

Webleverancier
F-Service

Weerhuisje

Vantage Pro2+ UV

alix3d2 & wl330n

Smartbedded

WRX137 & KX137

Ayecka SR1 & Triax

Boltek StormTracker

F-Service